sensor_id;sensor_type;location;lat;lon;timestamp;P1;durP1;ratioP1;P2;durP2;ratioP2
53903;SDS011;39812;52.430;16.936;2023-12-29T00:02:05;9.38;;;3.78;;
53903;SDS011;39812;52.430;16.936;2023-12-29T00:04:31;8.45;;;4.28;;
53903;SDS011;39812;52.430;16.936;2023-12-29T00:06:57;9.38;;;4.35;;
53903;SDS011;39812;52.430;16.936;2023-12-29T00:09:22;11.00;;;4.93;;
53903;SDS011;39812;52.430;16.936;2023-12-29T00:11:49;5.63;;;3.22;;
53903;SDS011;39812;52.430;16.936;2023-12-29T00:14:15;11.85;;;5.70;;
53903;SDS011;39812;52.430;16.936;2023-12-29T00:16:41;9.52;;;4.03;;
53903;SDS011;39812;52.430;16.936;2023-12-29T00:19:09;9.45;;;4.30;;
53903;SDS011;39812;52.430;16.936;2023-12-29T00:21:35;7.15;;;4.00;;
53903;SDS011;39812;52.430;16.936;2023-12-29T00:24:01;8.98;;;4.35;;
53903;SDS011;39812;52.430;16.936;2023-12-29T00:26:27;10.93;;;4.63;;
53903;SDS011;39812;52.430;16.936;2023-12-29T00:28:54;10.10;;;4.07;;
53903;SDS011;39812;52.430;16.936;2023-12-29T00:31:19;9.10;;;4.35;;
53903;SDS011;39812;52.430;16.936;2023-12-29T00:33:45;7.05;;;4.05;;
53903;SDS011;39812;52.430;16.936;2023-12-29T00:36:15;7.88;;;4.07;;
53903;SDS011;39812;52.430;16.936;2023-12-29T00:38:41;9.27;;;3.53;;
53903;SDS011;39812;52.430;16.936;2023-12-29T00:41:07;6.47;;;3.55;;
53903;SDS011;39812;52.430;16.936;2023-12-29T00:43:33;9.65;;;4.32;;
53903;SDS011;39812;52.430;16.936;2023-12-29T00:46:00;7.63;;;3.83;;
53903;SDS011;39812;52.430;16.936;2023-12-29T00:48:26;8.93;;;4.40;;
53903;SDS011;39812;52.430;16.936;2023-12-29T00:50:52;6.90;;;3.80;;
53903;SDS011;39812;52.430;16.936;2023-12-29T00:53:18;8.20;;;4.25;;
53903;SDS011;39812;52.430;16.936;2023-12-29T00:55:43;6.10;;;4.07;;
53903;SDS011;39812;52.430;16.936;2023-12-29T00:58:09;7.57;;;4.00;;
53903;SDS011;39812;52.430;16.936;2023-12-29T01:00:35;7.15;;;3.85;;
53903;SDS011;39812;52.430;16.936;2023-12-29T01:03:01;8.00;;;3.72;;
53903;SDS011;39812;52.430;16.936;2023-12-29T01:05:27;5.95;;;3.47;;
53903;SDS011;39812;52.430;16.936;2023-12-29T01:07:54;5.80;;;3.55;;
53903;SDS011;39812;52.430;16.936;2023-12-29T01:10:20;5.03;;;2.95;;
53903;SDS011;39812;52.430;16.936;2023-12-29T01:12:46;8.77;;;4.50;;
53903;SDS011;39812;52.430;16.936;2023-12-29T01:15:12;6.57;;;3.53;;
53903;SDS011;39812;52.430;16.936;2023-12-29T01:17:38;7.82;;;3.20;;
53903;SDS011;39812;52.430;16.936;2023-12-29T01:20:04;7.07;;;3.88;;
53903;SDS011;39812;52.430;16.936;2023-12-29T01:22:30;6.82;;;3.78;;
53903;SDS011;39812;52.430;16.936;2023-12-29T01:24:58;9.50;;;4.72;;
53903;SDS011;39812;52.430;16.936;2023-12-29T01:27:24;6.13;;;3.80;;
53903;SDS011;39812;52.430;16.936;2023-12-29T01:29:50;6.43;;;3.20;;
53903;SDS011;39812;52.430;16.936;2023-12-29T01:32:17;8.20;;;3.60;;
53903;SDS011;39812;52.430;16.936;2023-12-29T01:34:43;5.25;;;3.20;;
53903;SDS011;39812;52.430;16.936;2023-12-29T01:37:09;4.80;;;3.33;;
53903;SDS011;39812;52.430;16.936;2023-12-29T01:39:35;7.97;;;3.53;;
53903;SDS011;39812;52.430;16.936;2023-12-29T01:42:01;6.47;;;3.20;;
53903;SDS011;39812;52.430;16.936;2023-12-29T01:44:27;5.60;;;3.40;;
53903;SDS011;39812;52.430;16.936;2023-12-29T01:46:54;6.78;;;3.17;;
53903;SDS011;39812;52.430;16.936;2023-12-29T01:49:21;6.68;;;3.50;;
53903;SDS011;39812;52.430;16.936;2023-12-29T01:51:49;5.28;;;3.47;;
53903;SDS011;39812;52.430;16.936;2023-12-29T01:54:15;3.95;;;2.85;;
53903;SDS011;39812;52.430;16.936;2023-12-29T01:56:42;5.15;;;3.47;;
53903;SDS011;39812;52.430;16.936;2023-12-29T01:59:08;5.30;;;3.25;;
53903;SDS011;39812;52.430;16.936;2023-12-29T02:01:34;6.82;;;3.17;;
53903;SDS011;39812;52.430;16.936;2023-12-29T02:04:01;7.90;;;3.80;;
53903;SDS011;39812;52.430;16.936;2023-12-29T02:06:27;5.90;;;3.65;;
53903;SDS011;39812;52.430;16.936;2023-12-29T02:08:54;5.53;;;3.38;;
53903;SDS011;39812;52.430;16.936;2023-12-29T02:11:20;6.32;;;3.80;;
53903;SDS011;39812;52.430;16.936;2023-12-29T02:13:46;5.60;;;2.90;;
53903;SDS011;39812;52.430;16.936;2023-12-29T02:16:16;6.78;;;3.47;;
53903;SDS011;39812;52.430;16.936;2023-12-29T02:18:42;5.90;;;3.03;;
53903;SDS011;39812;52.430;16.936;2023-12-29T02:21:10;7.90;;;3.63;;
53903;SDS011;39812;52.430;16.936;2023-12-29T02:23:36;8.52;;;3.33;;
53903;SDS011;39812;52.430;16.936;2023-12-29T02:26:02;5.20;;;2.55;;
53903;SDS011;39812;52.430;16.936;2023-12-29T02:28:33;4.97;;;3.00;;
53903;SDS011;39812;52.430;16.936;2023-12-29T02:31:06;4.88;;;2.80;;
53903;SDS011;39812;52.430;16.936;2023-12-29T02:33:35;4.78;;;2.70;;
53903;SDS011;39812;52.430;16.936;2023-12-29T02:36:03;5.13;;;3.08;;
53903;SDS011;39812;52.430;16.936;2023-12-29T02:38:29;6.63;;;3.55;;
53903;SDS011;39812;52.430;16.936;2023-12-29T02:40:56;5.50;;;3.15;;
53903;SDS011;39812;52.430;16.936;2023-12-29T02:43:22;3.88;;;2.55;;
53903;SDS011;39812;52.430;16.936;2023-12-29T02:45:48;6.05;;;3.38;;
53903;SDS011;39812;52.430;16.936;2023-12-29T02:48:14;5.97;;;2.63;;
53903;SDS011;39812;52.430;16.936;2023-12-29T02:50:40;6.43;;;3.05;;
53903;SDS011;39812;52.430;16.936;2023-12-29T02:53:06;3.90;;;2.60;;
53903;SDS011;39812;52.430;16.936;2023-12-29T02:55:32;5.05;;;2.95;;
53903;SDS011;39812;52.430;16.936;2023-12-29T02:57:58;7.40;;;2.95;;
53903;SDS011;39812;52.430;16.936;2023-12-29T03:00:24;3.65;;;2.20;;
53903;SDS011;39812;52.430;16.936;2023-12-29T03:02:50;7.32;;;3.33;;
53903;SDS011;39812;52.430;16.936;2023-12-29T03:05:16;4.30;;;2.70;;
53903;SDS011;39812;52.430;16.936;2023-12-29T03:07:42;3.78;;;2.35;;
53903;SDS011;39812;52.430;16.936;2023-12-29T03:10:08;5.22;;;2.97;;
53903;SDS011;39812;52.430;16.936;2023-12-29T03:12:34;4.43;;;2.90;;
53903;SDS011;39812;52.430;16.936;2023-12-29T03:14:59;3.97;;;2.30;;
53903;SDS011;39812;52.430;16.936;2023-12-29T03:17:25;4.43;;;2.58;;
53903;SDS011;39812;52.430;16.936;2023-12-29T03:19:52;5.07;;;2.75;;
53903;SDS011;39812;52.430;16.936;2023-12-29T03:22:18;4.30;;;2.22;;
53903;SDS011;39812;52.430;16.936;2023-12-29T03:24:44;3.47;;;2.10;;
53903;SDS011;39812;52.430;16.936;2023-12-29T03:27:10;5.30;;;2.42;;
53903;SDS011;39812;52.430;16.936;2023-12-29T03:29:36;3.55;;;2.53;;
53903;SDS011;39812;52.430;16.936;2023-12-29T03:32:01;5.28;;;2.67;;
53903;SDS011;39812;52.430;16.936;2023-12-29T03:34:27;4.10;;;2.72;;
53903;SDS011;39812;52.430;16.936;2023-12-29T03:36:53;6.20;;;4.00;;
53903;SDS011;39812;52.430;16.936;2023-12-29T03:39:19;13.10;;;3.28;;
53903;SDS011;39812;52.430;16.936;2023-12-29T03:41:45;4.60;;;2.90;;
53903;SDS011;39812;52.430;16.936;2023-12-29T03:44:11;5.95;;;3.15;;
53903;SDS011;39812;52.430;16.936;2023-12-29T03:46:37;3.60;;;2.50;;
53903;SDS011;39812;52.430;16.936;2023-12-29T03:49:03;6.13;;;2.63;;
53903;SDS011;39812;52.430;16.936;2023-12-29T03:51:29;7.82;;;3.30;;
53903;SDS011;39812;52.430;16.936;2023-12-29T03:53:55;4.50;;;2.60;;
53903;SDS011;39812;52.430;16.936;2023-12-29T03:56:23;3.72;;;2.22;;
53903;SDS011;39812;52.430;16.936;2023-12-29T03:58:49;5.68;;;2.97;;
53903;SDS011;39812;52.430;16.936;2023-12-29T04:01:15;4.47;;;2.40;;
53903;SDS011;39812;52.430;16.936;2023-12-29T04:03:41;2.80;;;2.28;;
53903;SDS011;39812;52.430;16.936;2023-12-29T04:06:08;5.63;;;2.78;;
53903;SDS011;39812;52.430;16.936;2023-12-29T04:08:34;3.80;;;2.35;;
53903;SDS011;39812;52.430;16.936;2023-12-29T04:11:00;5.63;;;2.65;;
53903;SDS011;39812;52.430;16.936;2023-12-29T04:13:26;3.88;;;2.05;;
53903;SDS011;39812;52.430;16.936;2023-12-29T04:15:52;5.22;;;3.22;;
53903;SDS011;39812;52.430;16.936;2023-12-29T04:18:19;6.50;;;2.83;;
53903;SDS011;39812;52.430;16.936;2023-12-29T04:20:45;6.78;;;2.28;;
53903;SDS011;39812;52.430;16.936;2023-12-29T04:23:11;3.53;;;2.50;;
53903;SDS011;39812;52.430;16.936;2023-12-29T04:25:37;5.38;;;2.42;;
53903;SDS011;39812;52.430;16.936;2023-12-29T04:28:03;4.65;;;2.85;;
53903;SDS011;39812;52.430;16.936;2023-12-29T04:30:29;3.85;;;2.03;;
53903;SDS011;39812;52.430;16.936;2023-12-29T04:32:55;4.30;;;2.65;;
53903;SDS011;39812;52.430;16.936;2023-12-29T04:35:21;5.45;;;2.50;;
53903;SDS011;39812;52.430;16.936;2023-12-29T04:37:47;4.63;;;2.50;;
53903;SDS011;39812;52.430;16.936;2023-12-29T04:40:14;3.20;;;2.45;;
53903;SDS011;39812;52.430;16.936;2023-12-29T04:42:40;4.82;;;2.63;;
53903;SDS011;39812;52.430;16.936;2023-12-29T04:45:06;5.78;;;2.95;;
53903;SDS011;39812;52.430;16.936;2023-12-29T04:47:32;4.90;;;2.05;;
53903;SDS011;39812;52.430;16.936;2023-12-29T04:49:58;4.28;;;2.22;;
53903;SDS011;39812;52.430;16.936;2023-12-29T04:52:24;4.25;;;2.90;;
53903;SDS011;39812;52.430;16.936;2023-12-29T04:54:50;5.53;;;2.42;;
53903;SDS011;39812;52.430;16.936;2023-12-29T04:57:15;5.72;;;2.50;;
53903;SDS011;39812;52.430;16.936;2023-12-29T04:59:41;3.15;;;2.08;;
53903;SDS011;39812;52.430;16.936;2023-12-29T05:02:07;4.68;;;2.67;;
53903;SDS011;39812;52.430;16.936;2023-12-29T05:04:33;2.78;;;1.73;;
53903;SDS011;39812;52.430;16.936;2023-12-29T05:06:59;3.50;;;2.38;;
53903;SDS011;39812;52.430;16.936;2023-12-29T05:09:25;3.63;;;1.80;;
53903;SDS011;39812;52.430;16.936;2023-12-29T05:11:50;3.50;;;1.95;;
53903;SDS011;39812;52.430;16.936;2023-12-29T05:14:16;7.40;;;2.53;;
53903;SDS011;39812;52.430;16.936;2023-12-29T05:16:42;4.13;;;2.53;;
53903;SDS011;39812;52.430;16.936;2023-12-29T05:19:08;3.58;;;1.98;;
53903;SDS011;39812;52.430;16.936;2023-12-29T05:21:34;3.75;;;2.40;;
53903;SDS011;39812;52.430;16.936;2023-12-29T05:24:00;4.38;;;2.40;;
53903;SDS011;39812;52.430;16.936;2023-12-29T05:26:26;3.88;;;2.15;;
53903;SDS011;39812;52.430;16.936;2023-12-29T05:28:52;3.22;;;2.30;;
53903;SDS011;39812;52.430;16.936;2023-12-29T05:31:18;2.85;;;1.95;;
53903;SDS011;39812;52.430;16.936;2023-12-29T05:33:44;3.35;;;2.40;;
53903;SDS011;39812;52.430;16.936;2023-12-29T05:36:10;3.08;;;2.20;;
53903;SDS011;39812;52.430;16.936;2023-12-29T05:38:37;4.05;;;1.90;;
53903;SDS011;39812;52.430;16.936;2023-12-29T05:41:03;3.22;;;2.22;;
53903;SDS011;39812;52.430;16.936;2023-12-29T05:43:30;3.65;;;2.05;;
53903;SDS011;39812;52.430;16.936;2023-12-29T05:45:57;3.30;;;1.75;;
53903;SDS011;39812;52.430;16.936;2023-12-29T05:48:23;3.25;;;2.22;;
53903;SDS011;39812;52.430;16.936;2023-12-29T05:50:52;5.50;;;2.38;;
53903;SDS011;39812;52.430;16.936;2023-12-29T05:53:18;5.43;;;2.42;;
53903;SDS011;39812;52.430;16.936;2023-12-29T05:55:44;4.97;;;2.38;;
53903;SDS011;39812;52.430;16.936;2023-12-29T05:58:11;3.53;;;2.33;;
53903;SDS011;39812;52.430;16.936;2023-12-29T06:00:37;5.38;;;2.33;;
53903;SDS011;39812;52.430;16.936;2023-12-29T06:03:06;6.80;;;2.40;;
53903;SDS011;39812;52.430;16.936;2023-12-29T06:05:32;3.50;;;1.88;;
53903;SDS011;39812;52.430;16.936;2023-12-29T06:07:58;5.45;;;2.05;;
53903;SDS011;39812;52.430;16.936;2023-12-29T06:10:24;4.30;;;2.13;;
53903;SDS011;39812;52.430;16.936;2023-12-29T06:12:50;4.55;;;2.10;;
53903;SDS011;39812;52.430;16.936;2023-12-29T06:15:16;4.03;;;2.20;;
53903;SDS011;39812;52.430;16.936;2023-12-29T06:17:42;5.93;;;3.55;;
53903;SDS011;39812;52.430;16.936;2023-12-29T06:20:08;4.82;;;2.40;;
53903;SDS011;39812;52.430;16.936;2023-12-29T06:22:39;5.88;;;2.63;;
53903;SDS011;39812;52.430;16.936;2023-12-29T06:25:08;6.88;;;2.30;;
53903;SDS011;39812;52.430;16.936;2023-12-29T06:27:35;4.68;;;2.40;;
53903;SDS011;39812;52.430;16.936;2023-12-29T06:30:04;3.42;;;2.28;;
53903;SDS011;39812;52.430;16.936;2023-12-29T06:32:30;2.72;;;2.17;;
53903;SDS011;39812;52.430;16.936;2023-12-29T06:34:56;5.13;;;2.60;;
53903;SDS011;39812;52.430;16.936;2023-12-29T06:37:22;3.30;;;2.30;;
53903;SDS011;39812;52.430;16.936;2023-12-29T06:39:48;4.68;;;2.10;;
53903;SDS011;39812;52.430;16.936;2023-12-29T06:42:14;3.70;;;1.90;;
53903;SDS011;39812;52.430;16.936;2023-12-29T06:44:40;5.82;;;2.95;;
53903;SDS011;39812;52.430;16.936;2023-12-29T06:47:06;2.72;;;1.70;;
53903;SDS011;39812;52.430;16.936;2023-12-29T06:49:36;3.20;;;1.90;;
53903;SDS011;39812;52.430;16.936;2023-12-29T06:52:02;3.83;;;1.75;;
53903;SDS011;39812;52.430;16.936;2023-12-29T06:54:28;3.38;;;1.95;;
53903;SDS011;39812;52.430;16.936;2023-12-29T06:56:54;3.75;;;1.90;;
53903;SDS011;39812;52.430;16.936;2023-12-29T06:59:19;4.50;;;2.72;;
53903;SDS011;39812;52.430;16.936;2023-12-29T07:01:46;3.38;;;2.20;;
53903;SDS011;39812;52.430;16.936;2023-12-29T07:04:12;3.22;;;2.05;;
53903;SDS011;39812;52.430;16.936;2023-12-29T07:06:39;4.22;;;2.05;;
53903;SDS011;39812;52.430;16.936;2023-12-29T07:09:04;3.30;;;2.05;;
53903;SDS011;39812;52.430;16.936;2023-12-29T07:11:31;3.50;;;2.17;;
53903;SDS011;39812;52.430;16.936;2023-12-29T07:13:56;4.35;;;1.70;;
53903;SDS011;39812;52.430;16.936;2023-12-29T07:16:22;4.47;;;2.10;;
53903;SDS011;39812;52.430;16.936;2023-12-29T07:18:48;3.03;;;1.95;;
53903;SDS011;39812;52.430;16.936;2023-12-29T07:21:14;5.20;;;1.98;;
53903;SDS011;39812;52.430;16.936;2023-12-29T07:23:41;3.50;;;2.00;;
53903;SDS011;39812;52.430;16.936;2023-12-29T07:26:07;3.95;;;2.10;;
53903;SDS011;39812;52.430;16.936;2023-12-29T07:28:33;3.08;;;2.08;;
53903;SDS011;39812;52.430;16.936;2023-12-29T07:30:59;3.85;;;2.33;;
53903;SDS011;39812;52.430;16.936;2023-12-29T07:33:25;5.13;;;2.05;;
53903;SDS011;39812;52.430;16.936;2023-12-29T07:35:52;3.78;;;1.90;;
53903;SDS011;39812;52.430;16.936;2023-12-29T07:38:17;3.03;;;2.05;;
53903;SDS011;39812;52.430;16.936;2023-12-29T07:40:43;3.20;;;1.83;;
53903;SDS011;39812;52.430;16.936;2023-12-29T07:43:09;4.88;;;1.80;;
53903;SDS011;39812;52.430;16.936;2023-12-29T07:45:35;4.20;;;2.22;;
53903;SDS011;39812;52.430;16.936;2023-12-29T07:48:02;3.97;;;1.73;;
53903;SDS011;39812;52.430;16.936;2023-12-29T07:50:28;2.63;;;1.90;;
53903;SDS011;39812;52.430;16.936;2023-12-29T07:52:54;3.50;;;2.38;;
53903;SDS011;39812;52.430;16.936;2023-12-29T07:55:20;4.22;;;2.03;;
53903;SDS011;39812;52.430;16.936;2023-12-29T07:57:46;4.75;;;2.35;;
53903;SDS011;39812;52.430;16.936;2023-12-29T08:00:16;3.92;;;1.90;;
53903;SDS011;39812;52.430;16.936;2023-12-29T08:02:42;3.85;;;2.08;;
53903;SDS011;39812;52.430;16.936;2023-12-29T08:05:08;4.50;;;2.22;;
53903;SDS011;39812;52.430;16.936;2023-12-29T08:07:35;3.10;;;1.90;;
53903;SDS011;39812;52.430;16.936;2023-12-29T08:10:02;4.30;;;2.05;;
53903;SDS011;39812;52.430;16.936;2023-12-29T08:12:29;4.30;;;2.25;;
53903;SDS011;39812;52.430;16.936;2023-12-29T08:14:55;5.13;;;2.83;;
53903;SDS011;39812;52.430;16.936;2023-12-29T08:17:21;3.85;;;1.95;;
53903;SDS011;39812;52.430;16.936;2023-12-29T08:19:47;3.13;;;1.90;;
53903;SDS011;39812;52.430;16.936;2023-12-29T08:22:13;3.25;;;1.65;;
53903;SDS011;39812;52.430;16.936;2023-12-29T08:24:40;3.50;;;1.90;;
53903;SDS011;39812;52.430;16.936;2023-12-29T08:27:08;4.45;;;2.55;;
53903;SDS011;39812;52.430;16.936;2023-12-29T08:29:35;3.30;;;1.90;;
53903;SDS011;39812;52.430;16.936;2023-12-29T08:32:02;3.72;;;1.95;;
53903;SDS011;39812;52.430;16.936;2023-12-29T08:34:28;6.00;;;2.55;;
53903;SDS011;39812;52.430;16.936;2023-12-29T08:36:54;2.72;;;1.77;;
53903;SDS011;39812;52.430;16.936;2023-12-29T08:39:20;2.67;;;1.85;;
53903;SDS011;39812;52.430;16.936;2023-12-29T08:41:49;6.63;;;2.42;;
53903;SDS011;39812;52.430;16.936;2023-12-29T08:44:15;4.30;;;2.22;;
53903;SDS011;39812;52.430;16.936;2023-12-29T08:46:41;3.97;;;2.30;;
53903;SDS011;39812;52.430;16.936;2023-12-29T08:49:07;4.18;;;2.50;;
53903;SDS011;39812;52.430;16.936;2023-12-29T08:51:33;4.85;;;2.53;;
53903;SDS011;39812;52.430;16.936;2023-12-29T08:53:59;4.50;;;2.20;;
53903;SDS011;39812;52.430;16.936;2023-12-29T08:56:25;5.32;;;2.30;;
53903;SDS011;39812;52.430;16.936;2023-12-29T08:58:53;5.80;;;2.42;;
53903;SDS011;39812;52.430;16.936;2023-12-29T09:01:19;4.15;;;2.30;;
53903;SDS011;39812;52.430;16.936;2023-12-29T09:03:44;2.80;;;1.85;;
53903;SDS011;39812;52.430;16.936;2023-12-29T09:06:10;4.35;;;2.25;;
53903;SDS011;39812;52.430;16.936;2023-12-29T09:08:36;3.80;;;2.20;;
53903;SDS011;39812;52.430;16.936;2023-12-29T09:11:02;4.05;;;2.10;;
53903;SDS011;39812;52.430;16.936;2023-12-29T09:13:28;6.68;;;2.63;;
53903;SDS011;39812;52.430;16.936;2023-12-29T09:15:54;5.07;;;2.40;;
53903;SDS011;39812;52.430;16.936;2023-12-29T09:18:20;7.65;;;2.65;;
53903;SDS011;39812;52.430;16.936;2023-12-29T09:20:46;5.43;;;2.25;;
53903;SDS011;39812;52.430;16.936;2023-12-29T09:23:12;4.35;;;2.30;;
53903;SDS011;39812;52.430;16.936;2023-12-29T09:25:39;4.03;;;2.53;;
53903;SDS011;39812;52.430;16.936;2023-12-29T09:28:05;4.82;;;2.80;;
53903;SDS011;39812;52.430;16.936;2023-12-29T09:30:31;4.18;;;2.08;;
53903;SDS011;39812;52.430;16.936;2023-12-29T09:32:57;5.53;;;2.70;;
53903;SDS011;39812;52.430;16.936;2023-12-29T09:35:23;6.35;;;3.00;;
53903;SDS011;39812;52.430;16.936;2023-12-29T09:37:50;3.22;;;2.03;;
53903;SDS011;39812;52.430;16.936;2023-12-29T09:40:15;3.30;;;2.05;;
53903;SDS011;39812;52.430;16.936;2023-12-29T09:42:44;6.35;;;3.13;;
53903;SDS011;39812;52.430;16.936;2023-12-29T09:45:11;4.18;;;2.17;;
53903;SDS011;39812;52.430;16.936;2023-12-29T09:47:38;5.38;;;2.30;;
53903;SDS011;39812;52.430;16.936;2023-12-29T09:50:05;6.15;;;2.65;;
53903;SDS011;39812;52.430;16.936;2023-12-29T09:52:31;6.93;;;2.63;;
53903;SDS011;39812;52.430;16.936;2023-12-29T09:54:57;4.10;;;2.08;;
53903;SDS011;39812;52.430;16.936;2023-12-29T09:57:23;2.92;;;1.95;;
53903;SDS011;39812;52.430;16.936;2023-12-29T09:59:50;5.63;;;1.90;;
53903;SDS011;39812;52.430;16.936;2023-12-29T10:02:16;4.68;;;2.45;;
53903;SDS011;39812;52.430;16.936;2023-12-29T10:04:42;5.30;;;2.33;;
53903;SDS011;39812;52.430;16.936;2023-12-29T10:07:10;4.63;;;1.95;;
53903;SDS011;39812;52.430;16.936;2023-12-29T10:09:39;3.58;;;2.10;;
53903;SDS011;39812;52.430;16.936;2023-12-29T10:12:05;2.90;;;1.75;;
53903;SDS011;39812;52.430;16.936;2023-12-29T10:14:48;3.92;;;1.60;;
53903;SDS011;39812;52.430;16.936;2023-12-29T10:22:51;8.68;;;1.83;;
53903;SDS011;39812;52.430;16.936;2023-12-29T10:25:20;3.42;;;1.90;;
53903;SDS011;39812;52.430;16.936;2023-12-29T10:27:48;3.67;;;1.95;;
53903;SDS011;39812;52.430;16.936;2023-12-29T10:30:14;3.47;;;2.20;;
53903;SDS011;39812;52.430;16.936;2023-12-29T10:32:40;5.13;;;2.30;;
53903;SDS011;39812;52.430;16.936;2023-12-29T10:35:09;2.92;;;1.80;;
53903;SDS011;39812;52.430;16.936;2023-12-29T10:37:36;3.33;;;2.10;;
53903;SDS011;39812;52.430;16.936;2023-12-29T10:40:02;4.93;;;2.03;;
53903;SDS011;39812;52.430;16.936;2023-12-29T10:42:28;4.07;;;1.73;;
53903;SDS011;39812;52.430;16.936;2023-12-29T10:45:04;3.63;;;2.17;;
53903;SDS011;39812;52.430;16.936;2023-12-29T10:47:31;4.40;;;2.00;;
53903;SDS011;39812;52.430;16.936;2023-12-29T10:50:04;3.60;;;2.22;;
53903;SDS011;39812;52.430;16.936;2023-12-29T10:52:31;4.60;;;2.17;;
53903;SDS011;39812;52.430;16.936;2023-12-29T10:55:07;5.70;;;2.33;;
53903;SDS011;39812;52.430;16.936;2023-12-29T10:57:33;3.58;;;1.88;;
53903;SDS011;39812;52.430;16.936;2023-12-29T10:59:59;2.97;;;2.00;;
53903;SDS011;39812;52.430;16.936;2023-12-29T11:02:26;3.65;;;2.03;;
53903;SDS011;39812;52.430;16.936;2023-12-29T11:05:00;3.45;;;1.88;;
53903;SDS011;39812;52.430;16.936;2023-12-29T11:07:37;4.63;;;1.98;;
53903;SDS011;39812;52.430;16.936;2023-12-29T11:10:04;4.00;;;1.60;;
53903;SDS011;39812;52.430;16.936;2023-12-29T11:12:34;4.18;;;2.05;;
53903;SDS011;39812;52.430;16.936;2023-12-29T11:15:03;3.70;;;2.40;;
53903;SDS011;39812;52.430;16.936;2023-12-29T11:17:30;4.13;;;2.10;;
53903;SDS011;39812;52.430;16.936;2023-12-29T11:19:58;2.88;;;2.03;;
53903;SDS011;39812;52.430;16.936;2023-12-29T11:22:24;4.72;;;2.00;;
53903;SDS011;39812;52.430;16.936;2023-12-29T11:24:53;7.00;;;2.00;;
53903;SDS011;39812;52.430;16.936;2023-12-29T11:27:19;4.05;;;1.95;;
53903;SDS011;39812;52.430;16.936;2023-12-29T11:29:45;4.47;;;1.60;;
53903;SDS011;39812;52.430;16.936;2023-12-29T11:32:12;4.65;;;1.90;;
53903;SDS011;39812;52.430;16.936;2023-12-29T11:34:53;3.27;;;2.00;;
53903;SDS011;39812;52.430;16.936;2023-12-29T11:37:30;3.72;;;1.90;;
53903;SDS011;39812;52.430;16.936;2023-12-29T11:42:42;4.57;;;2.60;;
53903;SDS011;39812;52.430;16.936;2023-12-29T11:45:33;4.10;;;2.00;;
53903;SDS011;39812;52.430;16.936;2023-12-29T11:47:59;4.45;;;2.17;;
53903;SDS011;39812;52.430;16.936;2023-12-29T11:50:28;5.20;;;2.20;;
53903;SDS011;39812;52.430;16.936;2023-12-29T11:52:55;5.90;;;2.30;;
53903;SDS011;39812;52.430;16.936;2023-12-29T11:55:21;4.63;;;2.00;;
53903;SDS011;39812;52.430;16.936;2023-12-29T11:57:52;4.28;;;1.90;;
53903;SDS011;39812;52.430;16.936;2023-12-29T12:00:18;4.90;;;2.40;;
53903;SDS011;39812;52.430;16.936;2023-12-29T12:02:44;8.65;;;2.17;;
53903;SDS011;39812;52.430;16.936;2023-12-29T12:05:10;4.72;;;2.38;;
53903;SDS011;39812;52.430;16.936;2023-12-29T12:12:54;3.72;;;1.80;;
53903;SDS011;39812;52.430;16.936;2023-12-29T12:17:59;5.00;;;1.88;;
53903;SDS011;39812;52.430;16.936;2023-12-29T12:20:30;5.78;;;2.28;;
53903;SDS011;39812;52.430;16.936;2023-12-29T12:23:00;4.57;;;2.10;;
53903;SDS011;39812;52.430;16.936;2023-12-29T12:25:32;3.72;;;2.03;;
53903;SDS011;39812;52.430;16.936;2023-12-29T12:27:59;4.63;;;2.10;;
53903;SDS011;39812;52.430;16.936;2023-12-29T12:30:29;5.25;;;2.00;;
53903;SDS011;39812;52.430;16.936;2023-12-29T12:32:59;4.97;;;2.22;;
53903;SDS011;39812;52.430;16.936;2023-12-29T12:35:25;3.25;;;2.05;;
53903;SDS011;39812;52.430;16.936;2023-12-29T12:38:10;5.15;;;2.20;;
53903;SDS011;39812;52.430;16.936;2023-12-29T12:40:37;5.28;;;2.17;;
53903;SDS011;39812;52.430;16.936;2023-12-29T12:43:03;4.68;;;2.10;;
53903;SDS011;39812;52.430;16.936;2023-12-29T12:45:29;5.65;;;2.25;;
53903;SDS011;39812;52.430;16.936;2023-12-29T12:48:03;8.77;;;2.85;;
53903;SDS011;39812;52.430;16.936;2023-12-29T12:50:29;5.30;;;2.10;;
53903;SDS011;39812;52.430;16.936;2023-12-29T12:52:56;4.32;;;2.00;;
53903;SDS011;39812;52.430;16.936;2023-12-29T12:55:29;6.13;;;2.33;;
53903;SDS011;39812;52.430;16.936;2023-12-29T12:57:56;4.55;;;2.25;;
53903;SDS011;39812;52.430;16.936;2023-12-29T13:00:22;6.38;;;2.30;;
53903;SDS011;39812;52.430;16.936;2023-12-29T13:02:48;6.03;;;2.53;;
53903;SDS011;39812;52.430;16.936;2023-12-29T13:05:15;5.93;;;2.53;;
53903;SDS011;39812;52.430;16.936;2023-12-29T13:07:41;6.13;;;2.17;;
53903;SDS011;39812;52.430;16.936;2023-12-29T13:10:07;6.70;;;2.35;;
53903;SDS011;39812;52.430;16.936;2023-12-29T13:12:34;4.32;;;2.13;;
53903;SDS011;39812;52.430;16.936;2023-12-29T13:15:06;4.75;;;2.13;;
53903;SDS011;39812;52.430;16.936;2023-12-29T13:17:35;5.05;;;1.67;;
53903;SDS011;39812;52.430;16.936;2023-12-29T13:20:01;6.95;;;1.98;;
53903;SDS011;39812;52.430;16.936;2023-12-29T13:22:29;3.60;;;2.05;;
53903;SDS011;39812;52.430;16.936;2023-12-29T13:24:55;6.20;;;2.03;;
53903;SDS011;39812;52.430;16.936;2023-12-29T13:27:21;4.93;;;1.75;;
53903;SDS011;39812;52.430;16.936;2023-12-29T13:29:47;4.88;;;2.20;;
53903;SDS011;39812;52.430;16.936;2023-12-29T13:32:16;4.93;;;2.55;;
53903;SDS011;39812;52.430;16.936;2023-12-29T13:40:09;8.18;;;2.90;;
53903;SDS011;39812;52.430;16.936;2023-12-29T13:42:36;3.92;;;2.05;;
53903;SDS011;39812;52.430;16.936;2023-12-29T13:45:03;7.28;;;2.63;;
53903;SDS011;39812;52.430;16.936;2023-12-29T13:47:30;6.15;;;2.53;;
53903;SDS011;39812;52.430;16.936;2023-12-29T13:49:57;3.65;;;1.80;;
53903;SDS011;39812;52.430;16.936;2023-12-29T13:52:23;4.70;;;1.73;;
53903;SDS011;39812;52.430;16.936;2023-12-29T13:54:49;6.00;;;2.35;;
53903;SDS011;39812;52.430;16.936;2023-12-29T13:57:15;4.68;;;1.95;;
53903;SDS011;39812;52.430;16.936;2023-12-29T13:59:41;4.45;;;2.30;;
53903;SDS011;39812;52.430;16.936;2023-12-29T14:02:20;4.88;;;2.50;;
53903;SDS011;39812;52.430;16.936;2023-12-29T14:04:48;6.00;;;2.20;;
53903;SDS011;39812;52.430;16.936;2023-12-29T14:07:13;6.88;;;2.58;;
53903;SDS011;39812;52.430;16.936;2023-12-29T14:09:40;3.53;;;1.75;;
53903;SDS011;39812;52.430;16.936;2023-12-29T14:12:06;6.30;;;2.15;;
53903;SDS011;39812;52.430;16.936;2023-12-29T14:14:32;5.22;;;2.08;;
53903;SDS011;39812;52.430;16.936;2023-12-29T14:16:58;4.15;;;1.55;;
53903;SDS011;39812;52.430;16.936;2023-12-29T14:19:24;3.10;;;1.33;;
53903;SDS011;39812;52.430;16.936;2023-12-29T14:21:50;3.03;;;1.38;;
53903;SDS011;39812;52.430;16.936;2023-12-29T14:24:19;3.88;;;1.65;;
53903;SDS011;39812;52.430;16.936;2023-12-29T14:29:17;3.92;;;1.70;;
53903;SDS011;39812;52.430;16.936;2023-12-29T14:31:43;2.90;;;1.40;;
53903;SDS011;39812;52.430;16.936;2023-12-29T14:34:10;7.13;;;2.10;;
53903;SDS011;39812;52.430;16.936;2023-12-29T14:36:37;3.78;;;1.60;;
53903;SDS011;39812;52.430;16.936;2023-12-29T14:39:04;4.78;;;1.88;;
53903;SDS011;39812;52.430;16.936;2023-12-29T14:41:30;6.18;;;1.88;;
53903;SDS011;39812;52.430;16.936;2023-12-29T14:43:56;4.93;;;1.50;;
53903;SDS011;39812;52.430;16.936;2023-12-29T14:46:22;3.85;;;1.58;;
53903;SDS011;39812;52.430;16.936;2023-12-29T14:48:48;4.90;;;1.83;;
53903;SDS011;39812;52.430;16.936;2023-12-29T14:51:14;3.10;;;1.60;;
53903;SDS011;39812;52.430;16.936;2023-12-29T14:53:47;4.57;;;2.08;;
53903;SDS011;39812;52.430;16.936;2023-12-29T14:56:14;4.35;;;2.03;;